Time;durP1;ratioP1;P1;durP2;ratioP2;P2;SDS_P1;SDS_P2;PMS_P1;PMS_P2;Temp;Humidity;BMP_temperature;BMP_pressure;BME280_temperature;BME280_humidity;BME280_pressure;Samples;Min_cycle;Max_cycle;Signal;HPM_P1;HPM_P2
2022/04/04 00:00:47;;;;;;;3.87;3.57;;;3.60;99.90;;;4.27;92.21;-19872.31;5011675;28;20312;-62
2022/04/04 00:03:16;;;;;;;5.63;3.83;;;3.50;99.90;;;4.34;92.41;-19874.69;5011622;28;20751;-61
2022/04/04 00:05:44;;;;;;;5.03;4.37;;;3.50;99.90;;;4.24;92.89;-19871.28;5012408;28;20201;-62
2022/04/04 00:08:14;;;;;;;5.23;4.83;;;3.50;99.90;;;4.20;92.42;-19869.75;5011715;28;20232;-61
2022/04/04 00:10:42;;;;;;;5.83;5.23;;;3.50;99.90;;;4.48;91.66;-19879.31;5011304;28;20277;-60
2022/04/04 00:13:10;;;;;;;6.03;5.43;;;3.50;99.90;;;4.31;92.53;-19873.66;5011369;28;20325;-61
2022/04/04 00:15:38;;;;;;;6.87;6.10;;;3.50;99.90;;;4.42;92.21;-19877.44;5011658;28;20456;-60
2022/04/04 00:18:07;;;;;;;6.63;6.03;;;3.50;99.90;;;4.42;91.92;-19877.25;5010940;28;20285;-61
2022/04/04 00:20:35;;;;;;;7.50;6.77;;;3.60;99.90;;;4.33;91.98;-19874.34;5011916;28;20203;-61
2022/04/04 00:23:03;;;;;;;8.27;7.00;;;3.50;99.90;;;4.31;92.08;-19873.50;5011117;28;20229;-61
2022/04/04 00:25:32;;;;;;;7.40;6.70;;;3.50;99.90;;;4.14;92.55;-19867.69;5010914;28;20662;-60
2022/04/04 00:28:00;;;;;;;9.00;7.50;;;3.50;99.90;;;4.19;92.12;-19869.56;5011229;28;20230;-61
2022/04/04 00:30:28;;;;;;;8.37;7.27;;;3.40;99.90;;;3.94;93.63;-19861.03;5011132;28;20227;-61
2022/04/04 00:32:56;;;;;;;9.13;8.23;;;3.40;99.90;;;4.09;92.38;-19866.16;5011307;28;20287;-61
2022/04/04 00:35:24;;;;;;;10.10;9.10;;;3.40;99.90;;;3.85;93.42;-19857.94;5010975;28;20317;-63
2022/04/04 00:37:54;;;;;;;10.17;9.10;;;3.30;99.90;;;3.84;93.53;-19857.44;5011210;28;20729;-62
2022/04/04 00:40:22;;;;;;;11.13;8.70;;;3.20;99.90;;;3.98;93.78;-19862.41;5010896;28;20230;-62
2022/04/04 00:42:51;;;;;;;11.20;8.63;;;3.10;99.90;;;3.88;93.77;-19858.97;5010970;28;20315;-61
2022/04/04 00:45:19;;;;;;;9.07;8.17;;;3.10;99.90;;;3.84;93.23;-19857.59;5010956;28;20199;-62
2022/04/04 00:47:47;;;;;;;7.47;6.73;;;3.10;99.90;;;3.72;94.09;-19853.50;5011384;28;20243;-62
2022/04/04 00:50:15;;;;;;;8.07;7.27;;;3.10;99.90;;;3.57;95.21;-19848.53;5010491;28;20228;-60
2022/04/04 00:52:43;;;;;;;8.93;7.30;;;3.00;99.90;;;3.63;95.73;-19850.44;5010820;28;20229;-61
2022/04/04 00:55:12;;;;;;;7.80;6.83;;;3.00;99.90;;;3.56;95.49;-19848.22;5010827;28;20698;-63
2022/04/04 00:57:41;;;;;;;6.80;6.20;;;2.90;99.90;;;3.44;97.09;-19844.09;5010646;28;20793;-61
2022/04/04 01:00:12;;;;;;;6.40;5.80;;;2.80;99.90;;;3.55;97.04;-19847.69;5010921;28;20327;-61
2022/04/04 01:02:42;;;;;;;6.40;5.73;;;2.80;99.90;;;3.56;96.06;-19848.03;5011357;28;20281;-60
2022/04/04 01:05:10;;;;;;;6.37;5.53;;;2.80;99.90;;;3.61;96.13;-19849.91;5010436;28;20252;-62
2022/04/04 01:07:39;;;;;;;6.93;5.87;;;2.80;99.90;;;3.52;95.77;-19846.66;5010718;28;20226;-62
2022/04/04 01:10:10;;;;;;;5.87;5.27;;;2.80;99.90;;;3.37;97.45;-19841.53;5010695;28;20598;-60
2022/04/04 01:12:50;;;;;;;6.30;5.70;;;2.70;99.90;;;3.37;97.07;-19841.53;5010408;28;20716;-62
2022/04/04 01:15:21;;;;;;;5.93;5.20;;;2.70;99.90;;;3.28;97.01;-19838.63;5010459;28;20197;-61
2022/04/04 01:17:50;;;;;;;6.77;5.77;;;2.70;99.90;;;3.37;97.14;-19841.72;5011355;28;20418;-60
2022/04/04 01:20:18;;;;;;;6.23;5.63;;;2.70;99.90;;;3.45;96.57;-19844.28;5010143;28;20240;-60
2022/04/04 01:22:48;;;;;;;6.97;4.97;;;2.70;99.90;;;3.18;97.86;-19835.03;5024572;28;20235;-61
2022/04/04 01:25:23;;;;;;;5.60;5.10;;;2.60;99.90;;;3.10;98.98;-19832.31;5030067;28;20647;-61
2022/04/04 01:27:51;;;;;;;7.40;5.90;;;2.50;99.90;;;3.19;98.24;-19835.56;5030319;28;20228;-60
2022/04/04 01:30:20;;;;;;;6.37;5.77;;;2.50;99.90;;;3.14;98.67;-19833.69;5030806;28;20236;-61
2022/04/04 01:32:49;;;;;;;6.07;5.47;;;2.40;99.90;;;2.89;100.00;-19825.13;5030493;28;20281;-62
2022/04/04 01:35:17;;;;;;;6.50;5.90;;;2.30;99.90;;;2.81;100.00;-19822.41;5030052;28;20879;-61
2022/04/04 01:37:45;;;;;;;6.20;5.70;;;2.30;99.90;;;2.87;100.00;-19824.63;5030298;28;20320;-61
2022/04/04 01:40:15;;;;;;;7.23;6.50;;;2.20;99.90;;;3.06;100.00;-19830.94;5029956;28;20234;-62
2022/04/04 01:42:50;;;;;;;6.67;6.07;;;2.20;99.90;;;2.92;100.00;-19826.16;5030020;28;20278;-61
2022/04/04 01:46:23;;;;;;;8.30;6.47;;;2.20;99.90;;;2.92;100.00;-19826.16;5030018;28;20193;-61
2022/04/04 01:48:07;;;;;;;6.90;6.10;;;2.20;99.90;;;2.92;100.00;-19826.31;5029822;28;20302;-61
2022/04/04 01:50:36;;;;;;;6.57;5.80;;;2.10;99.90;;;2.69;100.00;-19818.28;5030698;28;20281;-61
2022/04/04 01:55:50;;;;;;;6.43;5.80;;;2.00;99.90;;;2.57;100.00;-19814.38;5029954;28;20230;-60
2022/04/04 01:58:20;;;;;;;7.53;5.90;;;2.00;99.90;;;2.80;100.00;-19822.06;5029937;28;20238;-61
2022/04/04 02:00:48;;;;;;;7.50;6.40;;;1.90;99.90;;;2.58;100.00;-19814.69;5029889;28;20234;-62
2022/04/04 02:03:16;;;;;;;6.37;5.73;;;1.90;99.90;;;2.45;100.00;-19810.44;5029838;28;20240;-61
2022/04/04 02:05:45;;;;;;;6.53;5.87;;;1.90;99.90;;;2.64;100.00;-19816.75;5030601;28;20621;-61
2022/04/04 02:08:13;;;;;;;6.87;5.93;;;1.80;99.90;;;2.65;100.00;-19817.09;5029844;28;20226;-59
2022/04/04 02:10:41;;;;;;;7.40;6.10;;;1.90;99.90;;;2.63;100.00;-19816.41;5029847;28;20229;-60
2022/04/04 02:13:09;;;;;;;7.40;6.03;;;1.90;99.90;;;2.68;100.00;-19817.94;5029687;28;20665;-60
2022/04/04 02:15:39;;;;;;;6.80;6.20;;;1.90;99.90;;;2.55;100.00;-19813.50;5030057;28;20233;-60
2022/04/04 02:18:08;;;;;;;6.23;5.63;;;1.90;99.90;;;2.42;100.00;-19809.41;5029931;28;20186;-60
2022/04/04 02:20:36;;;;;;;8.87;6.50;;;1.80;99.90;;;2.48;100.00;-19811.47;5031543;28;20567;-60
2022/04/04 02:23:05;;;;;;;6.57;5.93;;;1.80;99.90;;;2.39;100.00;-19808.38;5033354;28;20226;-61
2022/04/04 02:25:33;;;;;;;7.73;5.87;;;1.70;99.90;;;2.30;100.00;-19805.28;5033189;28;20331;-59
2022/04/04 02:28:01;;;;;;;7.03;5.87;;;1.70;99.90;;;2.23;100.00;-19802.91;5033338;28;20410;-60
2022/04/04 02:30:29;;;;;;;8.53;6.03;;;1.70;99.90;;;2.41;100.00;-19808.88;5033345;28;20320;-60
2022/04/04 02:32:58;;;;;;;8.10;6.63;;;1.70;99.90;;;2.33;100.00;-19806.31;5033624;28;20607;-61
2022/04/04 02:35:26;;;;;;;6.97;6.20;;;1.70;99.90;;;2.25;100.00;-19803.41;5033198;28;20705;-61
2022/04/04 02:37:54;;;;;;;7.10;5.80;;;1.70;99.90;;;2.39;100.00;-19808.19;5033171;28;20233;-61
2022/04/04 02:40:23;;;;;;;6.63;5.93;;;1.70;99.90;;;2.21;100.00;-19802.22;5032614;28;20233;-61
2022/04/04 02:42:51;;;;;;;6.40;5.80;;;1.60;99.90;;;2.41;100.00;-19808.88;5033117;28;20310;-62
2022/04/04 02:45:19;;;;;;;6.23;5.63;;;1.60;99.90;;;2.44;99.53;-19810.09;5033216;28;20212;-61
2022/04/04 02:47:48;;;;;;;7.17;6.50;;;1.70;99.90;;;2.38;99.12;-19807.88;5033072;28;20696;-60
2022/04/04 02:50:18;;;;;;;9.33;6.07;;;1.70;99.90;;;2.30;99.39;-19805.13;5032428;28;20294;-61
2022/04/04 02:52:46;;;;;;;6.93;6.33;;;1.60;99.90;;;2.45;98.01;-19810.44;5032626;28;20258;-61
2022/04/04 02:58:00;;;;;;;8.03;6.20;;;1.70;99.90;;;2.26;98.93;-19803.75;5032823;28;20218;-61
2022/04/04 03:00:28;;;;;;;6.70;6.10;;;1.60;99.90;;;2.20;98.45;-19801.69;5032588;28;20257;-62
2022/04/04 03:02:58;;;;;;;7.33;6.17;;;1.60;99.90;;;2.07;99.54;-19797.44;5033353;28;20205;-61
2022/04/04 03:05:28;;;;;;;7.67;6.50;;;1.50;99.90;;;2.23;98.54;-19802.91;5032462;28;20275;-63
2022/04/04 03:07:56;;;;;;;6.73;6.03;;;1.60;99.90;;;2.32;97.17;-19805.81;5032740;28;20229;-62
2022/04/04 03:10:24;;;;;;;7.33;6.00;;;1.60;99.90;;;2.38;96.43;-19807.88;5032596;28;20308;-63
2022/04/04 03:12:55;;;;;;;6.60;6.00;;;1.60;99.90;;;2.22;96.37;-19802.56;5032384;28;20605;-62
2022/04/04 03:15:25;;;;;;;7.43;6.13;;;1.60;99.90;;;2.15;96.89;-19800.16;5032440;28;20264;-61
2022/04/04 03:17:56;;;;;;;7.30;6.40;;;1.60;99.90;;;2.13;96.72;-19799.47;5032524;28;20677;-62
2022/04/04 03:20:28;;;;;;;6.60;6.00;;;1.60;99.90;;;2.31;95.63;-19805.63;5031992;28;20232;-62
2022/04/04 03:22:58;;;;;;;7.37;6.30;;;1.60;99.90;;;2.35;94.67;-19807.00;5032308;28;20254;-61
2022/04/04 03:25:26;;;;;;;7.07;6.37;;;1.60;99.90;;;2.41;94.44;-19808.88;5032124;28;20283;-61
2022/04/04 03:27:55;;;;;;;7.50;6.53;;;1.60;99.90;;;2.41;93.60;-19808.88;5032226;28;20698;-62
2022/04/04 03:30:26;;;;;;;7.93;6.10;;;1.70;99.90;;;2.29;94.14;-19804.97;5032020;28;22254;-62
2022/04/04 03:32:57;;;;;;;8.50;6.70;;;1.70;99.90;;;2.35;93.52;-19807.00;5032469;28;20221;-61
2022/04/04 03:35:30;;;;;;;8.33;6.60;;;1.70;99.90;;;2.50;92.52;-19812.13;5031852;28;20245;-60
2022/04/04 03:38:00;;;;;;;7.07;6.37;;;1.70;99.90;;;2.30;92.79;-19805.13;5031915;28;20317;-62
2022/04/04 03:40:30;;;;;;;7.67;6.87;;;1.70;99.90;;;2.32;93.24;-19805.81;5031807;28;20249;-61
2022/04/04 03:43:00;;;;;;;7.10;6.40;;;1.70;99.90;;;2.38;93.01;-19808.03;5031958;28;20683;-62
2022/04/04 03:45:29;;;;;;;7.43;6.60;;;1.70;99.90;;;2.64;90.66;-19816.59;5031721;28;20291;-62
2022/04/04 03:47:59;;;;;;;9.00;7.10;;;1.80;99.90;;;2.54;91.61;-19813.16;5032314;28;20213;-62
2022/04/04 03:50:30;;;;;;;7.80;7.00;;;1.80;99.90;;;2.41;92.34;-19809.06;5031510;28;20234;-61
2022/04/04 03:52:58;;;;;;;8.27;7.40;;;1.80;99.90;;;2.46;91.62;-19810.78;5031281;28;20713;-64
2022/04/04 03:55:30;;;;;;;9.13;7.00;;;1.80;99.90;;;2.54;91.34;-19813.34;5031410;28;20306;-61
2022/04/04 03:58:00;;;;;;;9.10;7.27;;;1.80;99.90;;;2.55;90.92;-19813.69;5031543;28;20304;-62
2022/04/04 04:00:29;;;;;;;8.40;7.60;;;1.80;99.90;;;2.68;90.39;-19817.94;5031650;28;20248;-61
2022/04/04 04:02:57;;;;;;;8.23;7.43;;;1.90;99.90;;;2.50;91.47;-19812.13;5031882;28;20213;-63
2022/04/04 04:05:25;;;;;;;8.13;7.33;;;1.90;99.90;;;2.61;90.35;-19815.56;5031101;28;20233;-63
2022/04/04 04:07:55;;;;;;;8.93;7.87;;;1.90;99.90;;;2.55;90.77;-19813.69;5031229;28;20226;-62
2022/04/04 04:10:24;;;;;;;9.93;8.20;;;1.90;99.90;;;2.65;90.07;-19816.91;5031188;28;20238;-62
2022/04/04 04:12:52;;;;;;;10.50;7.93;;;1.90;99.90;;;2.63;90.08;-19816.41;5031205;28;20850;-62
2022/04/04 04:15:25;;;;;;;9.07;7.87;;;1.90;99.90;;;2.75;89.75;-19820.50;5031168;28;20554;-63
2022/04/04 04:17:53;;;;;;;8.93;8.07;;;2.00;99.90;;;2.65;89.62;-19817.09;5031474;28;20634;-63
2022/04/04 04:20:29;;;;;;;10.70;8.77;;;1.90;99.90;;;2.64;89.45;-19816.59;5031045;28;20240;-61
2022/04/04 04:23:01;;;;;;;10.97;8.30;;;2.00;99.90;;;2.47;90.68;-19811.09;5030852;28;20407;-60
2022/04/04 04:25:33;;;;;;;9.03;8.13;;;1.90;99.90;;;2.54;90.03;-19813.16;5030791;28;20305;-63
2022/04/04 04:28:04;;;;;;;9.37;8.33;;;1.90;99.90;;;2.54;90.32;-19813.34;5030936;28;20316;-62
2022/04/04 04:30:33;;;;;;;9.73;8.67;;;1.90;99.90;;;2.50;90.64;-19812.13;5031134;28;20697;-61
2022/04/04 04:33:01;;;;;;;9.80;8.83;;;1.90;99.90;;;2.46;90.47;-19810.78;5031274;28;20197;-61
2022/04/04 04:35:29;;;;;;;9.60;8.60;;;1.90;99.90;;;2.64;90.25;-19816.59;5031034;28;20293;-62
2022/04/04 04:37:59;;;;;;;9.50;8.50;;;1.90;99.90;;;2.71;89.52;-19818.97;5030875;28;20245;-61
2022/04/04 04:40:27;;;;;;;11.30;9.17;;;2.00;99.90;;;2.89;88.25;-19825.13;5030321;28;20218;-61
2022/04/04 04:42:57;;;;;;;10.53;8.77;;;2.00;99.90;;;2.81;89.08;-19822.56;5030424;28;20272;-62
2022/04/04 04:45:25;;;;;;;9.73;8.53;;;2.00;99.90;;;2.67;90.06;-19817.78;5030913;28;20223;-62
2022/04/04 04:47:53;;;;;;;9.50;8.50;;;2.00;99.90;;;2.56;91.05;-19814.00;5030762;28;20682;-64
2022/04/04 04:50:23;;;;;;;12.00;9.00;;;1.90;99.90;;;2.53;90.68;-19812.81;5030560;28;20309;-62
2022/04/04 04:52:53;;;;;;;10.83;9.23;;;1.90;99.90;;;2.66;90.62;-19817.25;5030531;28;20226;-63
2022/04/04 04:55:24;;;;;;;10.10;9.10;;;1.90;99.90;;;2.72;89.70;-19819.31;5030509;28;20644;-64
2022/04/04 04:57:54;;;;;;;13.23;10.03;;;1.90;99.90;;;2.77;89.56;-19821.03;5030603;28;20312;-62
2022/04/04 05:00:25;;;;;;;12.37;9.50;;;1.90;99.90;;;2.64;90.01;-19816.59;5030497;28;20326;-63
2022/04/04 05:05:37;;;;;;;10.43;8.83;;;1.90;99.90;;;2.73;90.58;-19819.66;5029974;28;20221;-62
2022/04/04 05:08:06;;;;;;;10.70;9.57;;;1.90;99.90;;;2.69;90.44;-19818.28;5030181;28;20306;-62
2022/04/04 05:10:35;;;;;;;12.10;9.87;;;1.90;99.90;;;2.70;90.31;-19818.63;5030237;28;20222;-62
2022/04/04 05:13:03;;;;;;;11.23;10.07;;;1.90;99.90;;;2.52;91.91;-19812.47;5029880;28;20312;-63
2022/04/04 05:15:31;;;;;;;10.90;9.77;;;1.90;99.90;;;2.74;90.79;-19820.16;5030193;28;20225;-63
2022/04/04 05:17:59;;;;;;;11.37;9.50;;;1.90;99.90;;;2.94;89.18;-19827.00;5030969;28;20206;-61
2022/04/04 05:20:28;;;;;;;11.77;10.23;;;2.00;99.90;;;2.80;89.29;-19822.06;5030228;28;20349;-62
2022/04/04 05:22:57;;;;;;;12.07;10.13;;;2.10;99.90;;;2.92;89.34;-19826.16;5029855;28;20257;-62
2022/04/04 05:25:25;;;;;;;12.27;10.20;;;2.10;99.90;;;2.84;89.85;-19823.41;5029848;28;20325;-61
2022/04/04 05:27:56;;;;;;;13.07;10.50;;;2.10;99.90;;;2.87;89.80;-19824.63;5030104;28;20236;-62
2022/04/04 05:30:25;;;;;;;10.83;9.73;;;2.10;99.90;;;2.91;89.83;-19825.81;5030188;28;20229;-62
2022/04/04 05:32:53;;;;;;;12.27;10.57;;;2.20;99.90;;;3.00;89.47;-19829.06;5029989;28;20186;-62
2022/04/04 05:35:22;;;;;;;11.40;9.80;;;2.20;99.90;;;3.10;88.60;-19832.31;5029566;28;20229;-62
2022/04/04 05:37:54;;;;;;;12.30;9.77;;;2.30;99.90;;;3.29;86.96;-19838.97;5029659;28;20329;-61
2022/04/04 05:40:22;;;;;;;11.40;10.07;;;2.40;99.90;;;3.25;87.95;-19837.44;5029957;28;20250;-61
2022/04/04 05:42:50;;;;;;;12.93;10.20;;;2.50;99.90;;;3.34;87.52;-19840.69;5030117;28;20250;-62
2022/04/04 05:45:20;;;;;;;12.30;10.57;;;2.50;99.90;;;3.55;86.41;-19847.69;5029895;28;20301;-62
2022/04/04 05:47:48;;;;;;;14.87;10.13;;;2.60;99.90;;;3.62;86.09;-19850.09;5030599;28;20297;-62
2022/04/04 05:50:16;;;;;;;11.00;9.27;;;2.80;99.90;;;4.03;83.67;-19863.94;5029488;28;20240;-62
2022/04/04 05:52:44;;;;;;;11.33;9.37;;;3.00;99.90;;;4.19;83.10;-19869.41;5029933;28;20249;-61
2022/04/04 05:55:14;;;;;;;12.27;9.63;;;3.20;99.90;;;4.35;81.80;-19874.88;5030533;28;20228;-62
2022/04/04 05:57:42;;;;;;;10.97;9.73;;;3.40;99.90;;;4.30;80.82;-19873.34;5033569;28;20244;-61
2022/04/04 06:00:13;;;;;;;10.27;9.13;;;3.50;99.90;;;4.29;81.42;-19873.00;5033536;28;20288;-62
2022/04/04 06:02:45;;;;;;;10.87;9.77;;;3.50;99.90;;;4.28;81.54;-19872.66;5034017;28;20262;-62
2022/04/04 06:05:14;;;;;;;10.83;9.63;;;3.50;99.90;;;4.33;80.69;-19874.19;5033067;28;20711;-63
2022/04/04 06:07:42;;;;;;;10.50;9.40;;;3.60;99.90;;;4.43;80.71;-19877.59;5033337;28;20720;-63
2022/04/04 06:10:13;;;;;;;11.37;9.83;;;3.60;99.90;;;4.46;79.66;-19878.81;5033166;28;20340;-62
2022/04/04 06:12:43;;;;;;;11.23;9.87;;;3.60;99.90;;;4.51;80.44;-19880.34;5033170;28;20218;-62
2022/04/04 06:15:12;;;;;;;10.40;9.07;;;3.70;99.90;;;4.50;79.57;-19880.00;5032636;28;20214;-61
2022/04/04 06:17:40;;;;;;;10.47;9.47;;;3.70;99.90;;;4.60;79.79;-19883.41;5033104;28;20695;-62
2022/04/04 06:20:11;;;;;;;10.73;9.63;;;3.80;99.90;;;4.73;78.73;-19888.03;5032892;28;20651;-63
2022/04/04 06:22:41;;;;;;;10.30;9.30;;;3.90;99.90;;;4.76;77.73;-19889.06;5033153;28;20243;-61
2022/04/04 06:25:12;;;;;;;11.13;9.67;;;3.90;99.90;;;4.80;77.91;-19890.41;5033306;28;20227;-62
2022/04/04 06:27:40;;;;;;;11.00;9.07;;;4.00;99.90;;;4.99;77.93;-19896.75;5033367;28;20221;-62
2022/04/04 06:30:10;;;;;;;10.37;9.27;;;4.10;99.90;;;5.08;77.31;-19899.81;5033336;28;20303;-63
2022/04/04 06:32:42;;;;;;;9.77;8.40;;;4.20;99.90;;;5.26;75.31;-19905.81;5033515;28;20203;-62
2022/04/04 06:35:12;;;;;;;9.60;8.37;;;4.30;99.90;;;5.44;75.10;-19911.97;5032907;28;20315;-60
2022/04/04 06:37:40;;;;;;;9.27;8.37;;;4.40;99.90;;;5.64;73.75;-19918.97;5033277;28;20257;-61
2022/04/04 06:40:10;;;;;;;9.73;8.70;;;4.60;99.90;;;5.94;72.12;-19929.22;5032920;28;20723;-61
2022/04/04 06:42:42;;;;;;;10.17;8.20;;;4.80;99.90;;;6.08;71.15;-19933.84;5033030;28;20719;-61
2022/04/04 06:45:12;;;;;;;10.13;8.47;;;4.90;99.90;;;6.00;71.61;-19931.13;5032843;28;20608;-61
2022/04/04 06:47:40;;;;;;;9.77;8.77;;;5.00;99.90;;;6.07;71.11;-19933.50;5033186;28;20212;-61
2022/04/04 06:50:09;;;;;;;9.23;8.13;;;5.00;99.90;;;6.16;69.89;-19936.75;5033034;28;20251;-61
2022/04/04 06:52:38;;;;;;;11.63;8.90;;;5.10;99.90;;;6.18;69.61;-19937.25;5032991;28;20298;-61
2022/04/04 06:55:26;;;;;;;9.53;8.50;;;5.20;99.90;;;6.24;69.32;-19939.16;5032742;28;20235;-61
2022/04/04 06:57:55;;;;;;;10.30;8.70;;;5.20;99.90;;;6.59;68.36;-19951.09;5032844;28;20277;-63
2022/04/04 07:00:24;;;;;;;9.97;8.73;;;5.40;99.90;;;6.83;67.71;-19959.31;5032402;28;20239;-61
2022/04/04 07:02:53;;;;;;;10.37;9.13;;;5.60;99.90;;;6.91;66.35;-19962.22;5033284;28;20437;-61
2022/04/04 07:05:21;;;;;;;12.63;9.87;;;5.70;99.90;;;7.05;65.85;-19967.00;5032287;28;20227;-61
2022/04/04 07:07:51;;;;;;;10.03;9.03;;;5.80;99.90;;;7.27;64.72;-19974.50;5032217;28;20316;-61
2022/04/04 07:10:19;;;;;;;11.10;9.67;;;6.00;99.90;;;7.42;65.02;-19979.47;5031979;28;20335;-61
2022/04/04 07:12:47;;;;;;;12.43;9.57;;;6.10;99.90;;;7.59;64.31;-19985.28;5032399;28;20226;-59
2022/04/04 07:15:15;;;;;;;11.07;9.90;;;6.30;99.90;;;7.72;63.81;-19989.56;5031894;28;20291;-60
2022/04/04 07:17:45;;;;;;;14.97;9.33;;;6.40;99.90;;;7.81;62.62;-19992.63;5032656;28;20743;-61
2022/04/04 07:20:13;;;;;;;13.60;10.50;;;6.50;99.90;;;7.55;63.59;-19983.75;5032336;28;20252;-62
2022/04/04 07:22:44;;;;;;;25.43;10.47;;;6.50;99.90;;;7.68;63.34;-19988.34;5032498;28;20310;-62
2022/04/04 07:25:14;;;;;;;13.03;9.83;;;6.50;99.90;;;7.55;62.69;-19983.75;5032053;28;20221;-61
2022/04/04 07:27:46;;;;;;;10.57;9.50;;;6.40;99.90;;;7.62;62.68;-19986.31;5032348;28;20312;-62
2022/04/04 07:30:18;;;;;;;10.80;9.70;;;6.40;99.90;;;7.76;62.62;-19991.09;5031772;28;20211;-62
2022/04/04 07:32:48;;;;;;;12.57;10.07;;;6.50;99.90;;;7.66;61.67;-19987.50;5028165;28;20683;-62
2022/04/04 07:35:18;;;;;;;11.80;9.83;;;6.50;99.90;;;7.84;62.16;-19993.81;5012069;28;20233;-60
2022/04/04 07:37:49;;;;;;;12.60;10.70;;;6.50;99.90;;;7.87;61.87;-19994.69;5026970;28;20241;-60
2022/04/04 07:40:21;;;;;;;11.40;10.17;;;6.60;99.90;;;7.93;61.50;-19996.72;5031969;28;20263;-61
2022/04/04 07:42:50;;;;;;;11.90;10.60;;;6.70;99.90;;;7.83;60.63;-19993.31;5032034;28;20239;-61
2022/04/04 07:45:19;;;;;;;11.60;10.40;;;6.70;99.90;;;8.00;60.94;-19999.13;5031623;28;20213;-62
2022/04/04 07:47:49;;;;;;;12.53;11.27;;;6.80;99.90;;;8.18;60.50;-20005.28;5032642;28;20209;-60
2022/04/04 07:50:17;;;;;;;11.70;10.53;;;6.90;99.90;;;8.29;60.58;-20009.22;5031598;28;20603;-61
2022/04/04 07:52:45;;;;;;;10.87;9.77;;;6.90;99.90;;;8.14;59.26;-20003.91;5031450;28;20786;-61
2022/04/04 07:55:15;;;;;;;10.53;9.50;;;7.00;99.90;;;8.27;59.81;-20008.34;5031408;28;20315;-61
2022/04/04 07:57:44;;;;;;;13.10;10.73;;;6.90;99.90;;;8.39;58.66;-20012.63;5031405;28;20677;-60
2022/04/04 08:00:17;;;;;;;10.93;9.83;;;7.10;99.90;;;7.88;59.27;-19995.03;5031896;28;20291;-60
2022/04/04 08:02:46;;;;;;;11.67;10.37;;;6.90;99.90;;;7.90;59.24;-19995.88;5031832;28;20295;-60
2022/04/04 08:05:16;;;;;;;11.47;10.27;;;6.80;99.90;;;8.11;60.63;-20003.06;5031512;28;20312;-60
2022/04/04 08:07:47;;;;;;;10.97;9.87;;;6.80;99.90;;;8.51;58.95;-20016.56;5031379;28;20239;-61
2022/04/04 08:10:16;;;;;;;11.30;10.20;;;7.00;99.90;;;8.48;58.05;-20015.69;5031561;28;20297;-61
2022/04/04 08:12:46;;;;;;;11.70;10.20;;;7.10;99.90;;;8.26;58.29;-20008.19;5031457;28;20225;-62
2022/04/04 08:15:14;;;;;;;11.10;9.97;;;7.10;99.90;;;8.19;58.72;-20005.59;5031567;28;20235;-61
2022/04/04 08:17:43;;;;;;;11.70;10.50;;;7.00;99.90;;;7.90;59.64;-19995.88;5031129;28;20614;-61
2022/04/04 08:20:12;;;;;;;11.47;9.90;;;6.90;99.90;;;8.03;59.79;-20000.16;5031003;28;20606;-61
2022/04/04 08:22:43;;;;;;;13.37;10.60;;;6.80;99.90;;;7.95;60.13;-19997.59;5031014;28;20227;-61
2022/04/04 08:25:12;;;;;;;10.80;9.77;;;6.80;99.90;;;7.82;59.92;-19992.97;5030844;28;20259;-60
2022/04/04 08:27:41;;;;;;;11.23;10.03;;;6.80;99.90;;;7.74;60.30;-19990.22;5030836;28;20224;-61
2022/04/04 08:30:14;;;;;;;11.27;10.10;;;6.70;99.90;;;7.80;60.23;-19992.28;5031261;28;20205;-61
2022/04/04 08:32:42;;;;;;;11.30;10.10;;;6.70;99.90;;;7.91;60.04;-19996.22;5031243;28;20237;-61
2022/04/04 08:35:13;;;;;;;12.73;10.20;;;6.70;99.90;;;7.79;60.51;-19991.94;5030743;28;20723;-60
2022/04/04 08:37:44;;;;;;;11.10;10.00;;;6.70;99.90;;;7.83;60.25;-19993.47;5030645;28;20312;-61
2022/04/04 08:40:18;;;;;;;10.80;9.73;;;6.70;99.90;;;7.59;60.81;-19985.09;5030874;28;20264;-60
2022/04/04 08:42:47;;;;;;;12.47;10.07;;;6.70;99.90;;;7.68;60.90;-19988.34;5030236;28;20302;-62
2022/04/04 08:45:17;;;;;;;11.00;9.83;;;6.60;99.90;;;7.80;60.52;-19992.28;5011790;28;20234;-59
2022/04/04 08:47:46;;;;;;;12.47;9.80;;;6.70;99.90;;;7.89;59.89;-19995.34;5015675;28;20224;-61
2022/04/04 08:50:14;;;;;;;10.47;9.37;;;6.80;99.90;;;8.19;58.97;-20005.78;5030623;28;20270;-61
2022/04/04 08:52:44;;;;;;;12.07;9.47;;;6.90;99.90;;;8.00;59.30;-19999.13;5020143;28;20840;-60
2022/04/04 08:55:15;;;;;;;10.80;9.70;;;6.90;99.90;;;8.00;58.83;-19999.28;5011646;28;20243;-60
2022/04/04 08:57:44;;;;;;;9.13;8.23;;;6.90;99.90;;;8.04;59.10;-20000.47;5027719;28;20250;-62
2022/04/04 09:00:14;;;;;;;10.03;9.03;;;6.90;99.90;;;8.07;59.20;-20001.50;5027414;28;20233;-60
2022/04/04 09:03:02;;;;;;;10.93;9.53;;;7.00;99.90;;;8.27;58.38;-20008.53;5011495;28;20195;-60
2022/04/04 09:05:33;;;;;;;10.10;9.10;;;7.10;99.90;;;8.35;57.57;-20011.25;5011302;28;20284;-61
2022/04/04 09:08:05;;;;;;;10.23;8.83;;;7.10;99.90;;;8.52;56.54;-20016.91;5015895;28;20288;-60
2022/04/04 09:10:37;;;;;;;9.53;8.37;;;7.30;99.90;;;8.63;56.10;-20020.81;5030395;28;20321;-61
2022/04/04 09:13:11;;;;;;;9.97;8.00;;;7.40;99.90;;;8.67;55.40;-20022.03;5030182;28;20255;-61
2022/04/04 09:16:01;;;;;;;9.67;8.37;;;7.50;99.90;;;8.61;55.65;-20019.97;5030884;28;20284;-59
2022/04/04 09:18:49;;;;;;;9.23;8.33;;;7.40;99.90;;;8.57;55.64;-20018.59;5018533;28;20213;-61
2022/04/04 09:21:35;;;;;;;11.53;8.60;;;7.50;99.90;;;8.43;55.89;-20013.81;5010311;28;20233;-61
2022/04/04 09:24:10;;;;;;;9.37;8.33;;;7.40;99.90;;;8.98;55.15;-20032.59;5010453;28;20234;-61
2022/04/04 09:26:41;;;;;;;9.67;7.97;;;7.60;99.90;;;8.97;54.83;-20032.09;5010634;28;20701;-61
2022/04/04 09:29:16;;;;;;;14.33;7.70;;;7.70;99.90;;;9.17;53.93;-20039.09;5011394;28;20716;-61
2022/04/04 09:31:58;;;;;;;10.30;8.30;;;7.90;99.90;;;9.00;53.72;-20033.13;5014843;28;20233;-60
2022/04/04 09:34:27;;;;;;;9.67;8.43;;;7.90;99.90;;;9.11;53.36;-20036.88;5014541;28;20775;-60
2022/04/04 09:36:56;;;;;;;8.73;7.83;;;7.90;99.90;;;9.09;53.57;-20036.19;5014679;28;20282;-61
2022/04/04 09:39:24;;;;;;;8.97;8.07;;;8.00;99.90;;;8.97;54.06;-20032.28;5014972;28;20205;-61
2022/04/04 09:41:52;;;;;;;8.33;7.53;;;7.90;99.90;;;9.14;53.41;-20037.91;5014121;28;20253;-60
2022/04/04 09:44:25;;;;;;;8.50;7.70;;;7.90;99.90;;;9.34;52.55;-20044.91;5014066;28;20330;-60
2022/04/04 09:46:54;;;;;;;9.07;7.13;;;8.00;99.90;;;9.33;51.94;-20044.41;5015141;28;20312;-61
2022/04/04 09:49:22;;;;;;;8.43;6.83;;;8.10;99.90;;;9.50;51.15;-20050.38;5014172;28;20788;-61
2022/04/04 09:51:54;;;;;;;9.57;7.40;;;8.20;99.90;;;9.37;50.98;-20045.94;5014497;28;20602;-61
2022/04/04 09:54:26;;;;;;;9.00;7.03;;;8.30;99.90;;;9.45;50.25;-20048.50;5014606;28;20270;-60
2022/04/04 09:57:09;;;;;;;7.87;6.20;;;8.30;99.90;;;9.25;50.34;-20041.66;5014275;28;20322;-60
2022/04/04 09:59:42;;;;;;;7.43;6.60;;;8.20;99.90;;;9.00;50.32;-20033.13;5014274;28;20234;-61
2022/04/04 10:02:14;;;;;;;10.40;6.90;;;8.00;99.90;;;8.91;51.21;-20030.22;5014162;28;20313;-61
2022/04/04 10:04:45;;;;;;;7.87;7.07;;;8.00;99.90;;;8.95;51.53;-20031.59;5013973;28;20230;-60
2022/04/04 10:07:17;;;;;;;9.77;7.43;;;7.90;99.90;;;9.02;51.80;-20033.97;5014071;28;20191;-60
2022/04/04 10:09:46;;;;;;;8.27;7.47;;;7.90;99.90;;;9.29;50.65;-20043.19;5014658;28;20281;-62
2022/04/04 10:12:15;;;;;;;9.43;7.50;;;8.00;99.90;;;9.53;50.95;-20051.22;5013647;28;20731;-61
2022/04/04 10:14:44;;;;;;;8.53;7.47;;;8.30;99.90;;;9.64;49.67;-20055.16;5013750;28;20780;-61
2022/04/04 10:17:15;;;;;;;7.77;6.70;;;8.40;99.90;;;9.26;50.36;-20042.19;5013791;28;20254;-61
2022/04/04 10:19:43;;;;;;;9.73;6.47;;;8.30;99.90;;;9.22;49.90;-20040.63;5013717;28;20230;-61
2022/04/04 10:22:12;;;;;;;11.83;7.27;;;8.30;99.90;;;9.21;49.93;-20040.31;5013932;28;20212;-61
2022/04/04 10:24:44;;;;;;;7.90;6.80;;;8.30;99.90;;;9.41;50.30;-20047.31;5014320;28;20230;-61
2022/04/04 10:27:13;;;;;;;10.13;6.70;;;8.30;99.90;;;9.31;50.76;-20043.72;5013541;28;20257;-63
2022/04/04 10:29:44;;;;;;;7.77;5.47;;;8.30;99.90;;;9.48;47.47;-20049.53;5013648;28;20264;-64
2022/04/04 10:32:24;;;;;;;6.23;5.20;;;8.40;99.90;;;9.80;45.89;-20060.63;5013668;28;20348;-63
2022/04/04 10:34:53;;;;;;;5.60;5.10;;;8.50;99.90;;;9.83;45.23;-20061.66;5013387;28;20306;-60
2022/04/04 10:37:22;;;;;;;5.60;4.83;;;8.70;99.90;;;9.92;44.72;-20064.56;5013584;28;20226;-61
2022/04/04 10:39:52;;;;;;;7.80;5.23;;;8.70;99.90;;;10.00;45.26;-20067.13;5014051;28;20210;-60